sensor_id;sensor_type;location;lat;lon;timestamp;P1;durP1;ratioP1;P2;durP2;ratioP2
50789;SDS011;37287;47.554;7.844;2022-07-29T17:34:16;3.15;;;1.10;;
50789;SDS011;37287;47.554;7.844;2022-07-29T17:36:54;2.53;;;0.70;;
50789;SDS011;37287;47.554;7.844;2022-07-29T17:39:22;1.48;;;1.00;;
50789;SDS011;37287;47.554;7.844;2022-07-29T17:41:49;2.35;;;1.10;;
50789;SDS011;37287;47.554;7.844;2022-07-29T17:44:16;4.78;;;0.95;;
50789;SDS011;37287;47.554;7.844;2022-07-29T17:46:42;3.55;;;0.98;;
50789;SDS011;37287;47.554;7.844;2022-07-29T17:49:10;3.03;;;1.10;;
50789;SDS011;37287;47.554;7.844;2022-07-29T17:51:37;3.10;;;1.27;;
50789;SDS011;37287;47.554;7.844;2022-07-29T17:54:04;0.82;;;0.82;;
50789;SDS011;37287;47.554;7.844;2022-07-29T17:56:31;7.10;;;0.95;;
50789;SDS011;37287;47.554;7.844;2022-07-29T17:58:57;2.63;;;1.00;;
50789;SDS011;37287;47.554;7.844;2022-07-29T18:01:26;1.63;;;1.00;;
50789;SDS011;37287;47.554;7.844;2022-07-29T18:03:58;3.53;;;1.02;;
50789;SDS011;37287;47.554;7.844;2022-07-29T18:06:25;1.88;;;0.82;;
50789;SDS011;37287;47.554;7.844;2022-07-29T18:08:52;0.95;;;0.70;;
50789;SDS011;37287;47.554;7.844;2022-07-29T18:11:19;2.05;;;1.00;;
50789;SDS011;37287;47.554;7.844;2022-07-29T18:13:45;2.78;;;1.00;;
50789;SDS011;37287;47.554;7.844;2022-07-29T18:16:12;3.00;;;1.00;;
50789;SDS011;37287;47.554;7.844;2022-07-29T18:18:42;1.40;;;0.73;;
50789;SDS011;37287;47.554;7.844;2022-07-29T18:21:10;0.93;;;0.68;;
50789;SDS011;37287;47.554;7.844;2022-07-29T18:23:37;1.38;;;0.80;;
50789;SDS011;37287;47.554;7.844;2022-07-29T18:26:05;1.85;;;0.90;;
50789;SDS011;37287;47.554;7.844;2022-07-29T18:28:32;0.98;;;0.75;;
50789;SDS011;37287;47.554;7.844;2022-07-29T18:30:59;0.70;;;0.70;;
50789;SDS011;37287;47.554;7.844;2022-07-29T18:33:29;0.80;;;0.80;;
50789;SDS011;37287;47.554;7.844;2022-07-29T18:35:57;3.65;;;1.02;;
50789;SDS011;37287;47.554;7.844;2022-07-29T18:38:37;2.33;;;0.65;;
50789;SDS011;37287;47.554;7.844;2022-07-29T18:41:07;4.00;;;0.95;;
50789;SDS011;37287;47.554;7.844;2022-07-29T18:43:33;1.75;;;0.80;;
50789;SDS011;37287;47.554;7.844;2022-07-29T18:46:00;1.67;;;1.08;;
50789;SDS011;37287;47.554;7.844;2022-07-29T18:48:31;1.45;;;0.98;;
50789;SDS011;37287;47.554;7.844;2022-07-29T18:51:00;2.83;;;1.40;;
50789;SDS011;37287;47.554;7.844;2022-07-29T18:53:34;1.50;;;1.38;;
50789;SDS011;37287;47.554;7.844;2022-07-29T18:56:02;1.92;;;1.45;;
50789;SDS011;37287;47.554;7.844;2022-07-29T18:58:29;3.17;;;1.60;;
50789;SDS011;37287;47.554;7.844;2022-07-29T19:00:58;3.25;;;1.80;;
50789;SDS011;37287;47.554;7.844;2022-07-29T19:03:25;4.28;;;1.55;;
50789;SDS011;37287;47.554;7.844;2022-07-29T19:05:52;2.35;;;1.75;;
50789;SDS011;37287;47.554;7.844;2022-07-29T19:08:18;4.00;;;1.60;;
50789;SDS011;37287;47.554;7.844;2022-07-29T19:10:53;1.75;;;1.50;;
50789;SDS011;37287;47.554;7.844;2022-07-29T19:13:19;4.53;;;1.90;;
50789;SDS011;37287;47.554;7.844;2022-07-29T19:15:46;3.45;;;1.95;;
50789;SDS011;37287;47.554;7.844;2022-07-29T19:18:14;1.75;;;1.60;;
50789;SDS011;37287;47.554;7.844;2022-07-29T19:20:41;2.90;;;1.75;;
50789;SDS011;37287;47.554;7.844;2022-07-29T19:23:08;2.28;;;1.80;;
50789;SDS011;37287;47.554;7.844;2022-07-29T19:25:35;4.45;;;1.80;;
50789;SDS011;37287;47.554;7.844;2022-07-29T19:28:18;2.92;;;2.22;;
50789;SDS011;37287;47.554;7.844;2022-07-29T19:30:45;2.95;;;2.00;;
50789;SDS011;37287;47.554;7.844;2022-07-29T19:33:11;2.35;;;2.10;;
50789;SDS011;37287;47.554;7.844;2022-07-29T19:35:43;7.15;;;2.30;;
50789;SDS011;37287;47.554;7.844;2022-07-29T19:38:18;2.65;;;2.28;;
50789;SDS011;37287;47.554;7.844;2022-07-29T19:40:44;4.15;;;2.42;;
50789;SDS011;37287;47.554;7.844;2022-07-29T19:43:11;2.30;;;2.00;;
50789;SDS011;37287;47.554;7.844;2022-07-29T19:45:57;2.13;;;1.83;;
50789;SDS011;37287;47.554;7.844;2022-07-29T19:48:28;2.85;;;2.17;;
50789;SDS011;37287;47.554;7.844;2022-07-29T19:50:54;5.32;;;2.60;;
50789;SDS011;37287;47.554;7.844;2022-07-29T19:53:21;2.58;;;2.25;;
50789;SDS011;37287;47.554;7.844;2022-07-29T19:55:48;3.95;;;2.42;;
50789;SDS011;37287;47.554;7.844;2022-07-29T19:58:14;2.50;;;2.30;;
50789;SDS011;37287;47.554;7.844;2022-07-29T20:00:41;2.83;;;1.95;;
50789;SDS011;37287;47.554;7.844;2022-07-29T20:03:08;2.63;;;2.20;;
50789;SDS011;37287;47.554;7.844;2022-07-29T20:05:35;5.40;;;2.42;;
50789;SDS011;37287;47.554;7.844;2022-07-29T20:08:03;3.28;;;2.50;;
50789;SDS011;37287;47.554;7.844;2022-07-29T20:10:31;5.43;;;2.50;;
50789;SDS011;37287;47.554;7.844;2022-07-29T20:13:03;7.93;;;2.80;;
50789;SDS011;37287;47.554;7.844;2022-07-29T20:15:29;2.33;;;2.13;;
50789;SDS011;37287;47.554;7.844;2022-07-29T20:17:56;3.97;;;2.50;;
50789;SDS011;37287;47.554;7.844;2022-07-29T20:20:23;5.97;;;2.53;;
